»·PEaware :: N7474B KBFI-KPDX

N7474B :: KBFI-KPDX

FLIGHT INFORMATION

Flight Status: Arrived
Operator: Privately registered:
United States
More flights under this callsign
Pilot: Wayne R. (17783)
Aircraft: CESSNA 172 SKYHAWK
(C172)
More flights by this aircraft type
Origin: KBFI Boeing Field/King Co Intl
United States
Destination: KPDX Portland Intl
United States
More flights between these airports :: More routes between these airports
Route: BFI BLAKE ISLAND DIR KPSX
File this flight plan on PilotEdge
Remarks:
Altitude:
(Current/Filed)
2,500ft
Speed:
(Current/Filed)
110kts
Departed: 08-Oct-18 09:52 AM
Arrived: 08-Oct-18 11:11 AM
Distance/Time
Traveled:
117nm/1:19
Distance/Time
To Go:
Arrived

Flight Plot

Page will automatically refresh every two minutes.

Flight plan parsing failed; only flown route is shown


Map Options




Map Legend


Flown Route
Filed Route
Departure Airport
Arrival Airport
Navaid (VOR, NDB)
Fix

Horizontal Profiles

Position Reports

Time Latitude Longitude Heading Altitude Ground
Speed
08-Oct-18 09:49 47.533089 -122.300862 226 21ft 0kts
08-Oct-18 09:50 47.533081 -122.300875 226 21ft 0kts
08-Oct-18 09:51 47.533073 -122.300888 226 21ft 0kts
08-Oct-18 09:52 47.535020 -122.303563 328 21ft 24kts
08-Oct-18 09:53 47.538054 -122.306694 268 21ft 2kts
08-Oct-18 09:54 47.534550 -122.304566 147 42ft 60kts
08-Oct-18 09:55 47.521757 -122.311524 266 602ft 84kts
08-Oct-18 09:56 47.521850 -122.349625 272 781ft 95kts
08-Oct-18 09:57 47.522479 -122.386895 264 1230ft 85kts
08-Oct-18 09:58 47.519114 -122.421547 249 1629ft 86kts
08-Oct-18 09:59 47.507336 -122.452687 238 1929ft 94kts
08-Oct-18 10:00 47.494739 -122.487149 244 2107ft 94kts
08-Oct-18 10:01 47.484277 -122.522737 241 2282ft 95kts
08-Oct-18 10:02 47.470165 -122.555704 234 2449ft 95kts
08-Oct-18 10:03 47.455240 -122.588994 235 2563ft 94kts
08-Oct-18 10:04 47.440575 -122.621042 236 2707ft 95kts
08-Oct-18 10:05 47.421989 -122.646037 200 2931ft 85kts
08-Oct-18 10:06 47.399995 -122.653465 193 3356ft 82kts
08-Oct-18 10:07 47.375051 -122.661644 186 3422ft 98kts
08-Oct-18 10:08 47.347614 -122.666296 186 3421ft 99kts
08-Oct-18 10:09 47.319900 -122.670986 186 3421ft 100kts
08-Oct-18 10:10 47.292255 -122.675648 186 3421ft 99kts
08-Oct-18 10:11 47.264510 -122.680535 185 3419ft 100kts
08-Oct-18 10:12 47.236886 -122.685854 185 3421ft 99kts
08-Oct-18 10:13 47.209181 -122.687785 180 3419ft 99kts
08-Oct-18 10:14 47.181265 -122.688839 180 3421ft 100kts
08-Oct-18 10:15 47.153445 -122.689653 180 3419ft 99kts
08-Oct-18 10:16 47.125633 -122.690512 180 3419ft 100kts
08-Oct-18 10:17 47.097666 -122.689927 177 3508ft 99kts
08-Oct-18 10:18 47.072309 -122.688353 177 3998ft 86kts
08-Oct-18 10:19 47.048581 -122.686902 177 4489ft 83kts
08-Oct-18 10:20 47.025558 -122.685520 177 4979ft 82kts
08-Oct-18 10:21 47.002790 -122.684116 177 5397ft 88kts
08-Oct-18 10:22 46.975093 -122.682389 177 5397ft 103kts
08-Oct-18 10:23 46.946106 -122.680799 177 5396ft 104kts
08-Oct-18 10:24 46.917074 -122.679156 177 5399ft 104kts
08-Oct-18 10:25 46.887963 -122.677360 177 5397ft 104kts
08-Oct-18 10:26 46.858882 -122.675515 177 5401ft 104kts
08-Oct-18 10:27 46.829723 -122.673663 177 5396ft 105kts
08-Oct-18 10:28 46.800641 -122.671836 177 5401ft 104kts
08-Oct-18 10:29 46.771548 -122.670101 177 5400ft 104kts
08-Oct-18 10:30 46.742371 -122.669273 177 5432ft 104kts
08-Oct-18 10:31 46.713256 -122.670111 177 5444ft 104kts
08-Oct-18 10:32 46.684441 -122.670967 173 5448ft 102kts
08-Oct-18 10:33 46.655876 -122.669281 173 5447ft 102kts
08-Oct-18 10:34 46.627540 -122.667409 173 5445ft 102kts
08-Oct-18 10:35 46.599193 -122.665280 173 5443ft 101kts
08-Oct-18 10:36 46.571462 -122.661835 173 5471ft 95kts
08-Oct-18 10:37 46.544996 -122.654550 173 5482ft 98kts
08-Oct-18 10:38 46.517417 -122.645776 173 5487ft 103kts
08-Oct-18 10:39 46.489063 -122.636637 176 5487ft 105kts
08-Oct-18 10:40 46.466156 -122.634257 183 5489ft 104kts
08-Oct-18 10:41 46.437128 -122.632258 183 5487ft 103kts
08-Oct-18 10:42 46.408791 -122.630855 183 5486ft 101kts
08-Oct-18 10:43 46.381822 -122.633735 184 5475ft 95kts
08-Oct-18 10:44 46.355450 -122.638980 184 5473ft 96kts
08-Oct-18 10:45 46.328724 -122.644999 184 5472ft 98kts
08-Oct-18 10:46 46.301630 -122.646661 175 5473ft 97kts
08-Oct-18 10:47 46.274641 -122.646348 175 5473ft 97kts
08-Oct-18 10:48 46.246880 -122.645852 175 5472ft 108kts
08-Oct-18 10:49 46.218859 -122.644596 175 5459ft 99kts
08-Oct-18 10:50 46.191405 -122.642193 175 5454ft 99kts
08-Oct-18 10:51 46.163725 -122.639351 175 5450ft 99kts
08-Oct-18 10:52 46.136039 -122.636234 175 5449ft 100kts
08-Oct-18 10:53 46.108253 -122.632748 175 5447ft 100kts
08-Oct-18 10:54 46.079850 -122.629165 175 5282ft 110kts
08-Oct-18 10:55 46.048601 -122.625455 175 4784ft 116kts
08-Oct-18 10:56 46.015609 -122.622190 175 4293ft 119kts
08-Oct-18 10:57 45.982538 -122.618562 175 3798ft 119kts
08-Oct-18 10:58 45.949933 -122.614905 175 3456ft 111kts
08-Oct-18 10:59 45.919868 -122.611581 175 3460ft 107kts
08-Oct-18 11:00 45.890129 -122.608539 175 3460ft 107kts
08-Oct-18 11:01 45.860537 -122.605736 175 3479ft 106kts
08-Oct-18 11:02 45.830934 -122.602674 175 3481ft 106kts
08-Oct-18 11:03 45.800558 -122.605047 189 3292ft 112kts
08-Oct-18 11:04 45.769584 -122.607955 182 3105ft 111kts
08-Oct-18 11:05 45.739024 -122.610264 182 2932ft 107kts
08-Oct-18 11:06 45.707867 -122.612645 182 2476ft 114kts
08-Oct-18 11:07 45.675768 -122.614979 182 2009ft 114kts
08-Oct-18 11:08 45.646360 -122.614131 162 1930ft 99kts
08-Oct-18 11:09 45.620813 -122.595902 148 1593ft 105kts
08-Oct-18 11:10 45.604690 -122.570545 124 1310ft 83kts
08-Oct-18 11:11 45.587856 -122.549299 198 656ft 80kts
08-Oct-18 11:12 45.585635 -122.572144 299 21ft 57kts
08-Oct-18 11:13 45.586520 -122.576067 234 21ft 0kts
08-Oct-18 11:14 45.584859 -122.577365 187 21ft 4kts
08-Oct-18 11:15 45.584483 -122.577558 139 21ft 0kts

Navigation Log

Ident Type
Flight plan parsing failed, navigation log unavailable